Time;durP1;ratioP1;P1;durP2;ratioP2;P2;SDS_P1;SDS_P2;PMS_P1;PMS_P2;Temp;Humidity;BMP_temperature;BMP_pressure;BME280_temperature;BME280_humidity;BME280_pressure;Samples;Min_cycle;Max_cycle;Signal;HPM_P1;HPM_P2
2023/08/09 00:00:31;;;;;;;19.92;4.35;;;;;;;;;;5073276;28;20061;-47
2023/08/09 00:03:00;;;;;;;19.95;4.38;;;;;;;;;;5073059;28;20158;-48
2023/08/09 00:05:27;;;;;;;16.30;3.63;;;;;;;;;;5072840;28;20041;-49
2023/08/09 00:07:54;;;;;;;15.50;3.85;;;;;;;;;;5073121;28;20044;-48
2023/08/09 00:10:21;;;;;;;21.73;4.28;;;;;;;;;;5073147;28;20490;-48
2023/08/09 00:12:49;;;;;;;17.55;3.25;;;;;;;;;;5072093;28;20085;-48
2023/08/09 00:15:16;;;;;;;17.65;4.30;;;;;;;;;;5069009;28;20058;-50
2023/08/09 00:17:43;;;;;;;17.92;3.90;;;;;;;;;;5072327;28;20035;-48
2023/08/09 00:20:11;;;;;;;14.13;3.80;;;;;;;;;;5072483;28;20024;-47
2023/08/09 00:22:39;;;;;;;22.15;4.10;;;;;;;;;;5072448;28;20064;-52
2023/08/09 00:25:06;;;;;;;15.23;4.40;;;;;;;;;;5072698;28;20059;-49
2023/08/09 00:27:33;;;;;;;18.38;3.70;;;;;;;;;;5072553;28;20028;-49
2023/08/09 00:30:00;;;;;;;20.60;4.75;;;;;;;;;;5072780;28;20048;-49
2023/08/09 00:32:27;;;;;;;19.30;4.53;;;;;;;;;;5059570;28;20030;-48
2023/08/09 00:34:54;;;;;;;19.92;4.28;;;;;;;;;;5072369;28;20029;-51
2023/08/09 00:37:21;;;;;;;16.40;4.53;;;;;;;;;;5072540;28;20040;-48
2023/08/09 00:39:49;;;;;;;14.57;4.20;;;;;;;;;;5072698;28;20024;-50
2023/08/09 00:42:16;;;;;;;18.52;5.00;;;;;;;;;;5070648;28;20044;-47
2023/08/09 00:44:43;;;;;;;15.32;4.80;;;;;;;;;;5071606;28;20029;-47
2023/08/09 00:47:11;;;;;;;26.80;5.93;;;;;;;;;;5072376;28;20425;-50
2023/08/09 00:49:38;;;;;;;20.17;6.20;;;;;;;;;;5072344;28;20047;-50
2023/08/09 00:52:05;;;;;;;32.47;8.07;;;;;;;;;;5071835;28;20039;-47
2023/08/09 00:54:33;;;;;;;36.60;9.43;;;;;;;;;;5070072;28;20024;-49
2023/08/09 00:57:01;;;;;;;48.35;12.32;;;;;;;;;;5072083;28;20059;-50
2023/08/09 00:59:28;;;;;;;63.75;16.15;;;;;;;;;;5071001;28;20494;-49
2023/08/09 01:01:55;;;;;;;65.07;18.42;;;;;;;;;;5071902;28;20060;-47
2023/08/09 01:04:22;;;;;;;79.28;22.58;;;;;;;;;;5071886;28;20102;-49
2023/08/09 01:06:49;;;;;;;87.97;24.95;;;;;;;;;;5071942;28;20024;-47
2023/08/09 01:09:21;;;;;;;91.90;27.88;;;;;;;;;;5071713;28;20044;-48
2023/08/09 01:11:55;;;;;;;103.35;30.77;;;;;;;;;;5071451;28;20028;-51
2023/08/09 01:14:23;;;;;;;95.00;28.10;;;;;;;;;;5071005;28;20525;-49
2023/08/09 01:16:51;;;;;;;101.97;29.02;;;;;;;;;;5071942;28;20025;-49
2023/08/09 01:19:50;;;;;;;111.20;29.58;;;;;;;;;;5071703;28;20024;-48
2023/08/09 01:22:18;;;;;;;109.38;31.02;;;;;;;;;;5055535;28;20050;-47
2023/08/09 01:24:45;;;;;;;101.30;28.65;;;;;;;;;;5061114;28;20049;-49
2023/08/09 01:27:13;;;;;;;94.78;27.83;;;;;;;;;;5057942;28;20037;-49
2023/08/09 01:29:44;;;;;;;;;;;;;;;;;;5071998;28;20052;-50
2023/08/09 01:32:12;;;;;;;80.32;26.67;;;;;;;;;;5070952;28;19955;-52
2023/08/09 01:34:39;;;;;;;82.90;26.73;;;;;;;;;;5071079;28;20029;-48
2023/08/09 01:37:19;;;;;;;90.45;27.80;;;;;;;;;;5071202;28;20021;-51
2023/08/09 01:39:50;;;;;;;94.15;26.70;;;;;;;;;;5070550;28;20546;-50
2023/08/09 01:42:17;;;;;;;83.95;25.67;;;;;;;;;;5071460;28;20101;-50
2023/08/09 01:44:45;;;;;;;80.75;25.15;;;;;;;;;;5070990;28;20044;-48
2023/08/09 01:47:12;;;;;;;71.97;24.10;;;;;;;;;;5071195;28;20119;-48
2023/08/09 01:49:45;;;;;;;78.13;23.92;;;;;;;;;;5071048;28;20116;-48
2023/08/09 01:52:12;;;;;;;69.95;22.65;;;;;;;;;;5071106;28;20032;-48
2023/08/09 01:54:39;;;;;;;69.38;21.88;;;;;;;;;;5070955;28;20039;-48
2023/08/09 01:57:06;;;;;;;67.88;23.05;;;;;;;;;;5070927;28;20033;-49
2023/08/09 01:59:34;;;;;;;70.47;21.30;;;;;;;;;;5071168;28;20093;-49
2023/08/09 02:02:01;;;;;;;57.30;20.27;;;;;;;;;;5071376;28;20061;-48
2023/08/09 02:04:28;;;;;;;61.75;19.42;;;;;;;;;;5069887;28;20036;-52
2023/08/09 02:06:55;;;;;;;57.92;18.70;;;;;;;;;;5071010;28;20032;-49
2023/08/09 02:09:22;;;;;;;53.38;18.50;;;;;;;;;;5070586;28;20039;-48
2023/08/09 02:11:49;;;;;;;54.08;18.63;;;;;;;;;;5071282;28;20025;-49
2023/08/09 02:14:16;;;;;;;53.35;16.83;;;;;;;;;;5070631;28;20070;-49
2023/08/09 02:16:43;;;;;;;56.90;17.48;;;;;;;;;;5071020;28;20107;-49
2023/08/09 02:19:10;;;;;;;51.83;17.73;;;;;;;;;;5070400;28;20029;-51
2023/08/09 02:21:44;;;;;;;53.85;17.08;;;;;;;;;;5071019;28;20029;-52
2023/08/09 02:24:11;;;;;;;47.17;15.85;;;;;;;;;;5070935;28;20355;-51
2023/08/09 02:26:39;;;;;;;44.30;15.93;;;;;;;;;;5071008;28;20048;-48
2023/08/09 02:29:06;;;;;;;47.78;15.55;;;;;;;;;;5068506;28;20056;-47
2023/08/09 02:31:34;;;;;;;38.28;14.65;;;;;;;;;;5060627;28;20023;-50
2023/08/09 02:34:02;;;;;;;45.13;14.60;;;;;;;;;;5065493;28;20029;-49
2023/08/09 02:36:29;;;;;;;49.58;15.25;;;;;;;;;;5068937;28;20033;-53
2023/08/09 02:38:56;;;;;;;49.90;14.60;;;;;;;;;;5057510;28;20116;-53
2023/08/09 02:41:24;;;;;;;39.42;13.52;;;;;;;;;;5050445;28;20071;-47
2023/08/09 02:43:51;;;;;;;42.05;14.05;;;;;;;;;;5050331;28;20086;-49
2023/08/09 02:46:18;;;;;;;42.80;13.80;;;;;;;;;;5050429;28;20506;-49
2023/08/09 02:48:45;;;;;;;40.05;13.68;;;;;;;;;;5050355;28;20032;-51
2023/08/09 02:51:12;;;;;;;48.28;13.10;;;;;;;;;;5047613;28;20033;-50
2023/08/09 02:53:57;;;;;;;45.47;13.07;;;;;;;;;;5050220;28;20025;-51
2023/08/09 02:56:24;;;;;;;37.70;12.68;;;;;;;;;;5050882;28;20036;-48
2023/08/09 02:58:51;;;;;;;38.35;12.15;;;;;;;;;;5050995;28;20376;-48
2023/08/09 03:01:21;;;;;;;37.67;11.82;;;;;;;;;;5050953;28;20103;-49
2023/08/09 03:03:49;;;;;;;36.35;12.25;;;;;;;;;;5050101;28;20033;-48
2023/08/09 03:06:17;;;;;;;37.05;12.40;;;;;;;;;;5050481;28;20491;-49
2023/08/09 03:08:47;;;;;;;32.67;10.18;;;;;;;;;;5049910;28;20037;-49
2023/08/09 03:11:14;;;;;;;36.10;11.63;;;;;;;;;;5048124;28;20025;-52
2023/08/09 03:13:41;;;;;;;32.85;11.73;;;;;;;;;;5050869;28;20025;-49
2023/08/09 03:16:08;;;;;;;35.90;11.75;;;;;;;;;;5054137;28;20399;-52
2023/08/09 03:18:35;;;;;;;36.42;11.50;;;;;;;;;;5054470;28;20487;-49
2023/08/09 03:21:02;;;;;;;36.35;11.00;;;;;;;;;;5054420;28;20029;-52
2023/08/09 03:23:29;;;;;;;33.38;10.07;;;;;;;;;;5054260;28;20029;-49
2023/08/09 03:25:56;;;;;;;31.58;10.52;;;;;;;;;;5054066;28;20049;-51
2023/08/09 03:28:23;;;;;;;25.65;9.38;;;;;;;;;;5054233;28;20412;-51
2023/08/09 03:30:50;;;;;;;32.80;11.02;;;;;;;;;;5054261;28;20056;-52
2023/08/09 03:33:18;;;;;;;29.95;10.25;;;;;;;;;;5054175;28;20386;-49
2023/08/09 03:35:45;;;;;;;30.08;8.75;;;;;;;;;;5054004;28;20029;-48
2023/08/09 03:38:13;;;;;;;25.65;9.23;;;;;;;;;;5054077;28;20029;-48
2023/08/09 03:40:40;;;;;;;26.98;9.20;;;;;;;;;;5054055;28;20061;-52
2023/08/09 03:43:07;;;;;;;26.67;9.13;;;;;;;;;;5053958;28;20094;-49
2023/08/09 03:45:34;;;;;;;28.35;8.52;;;;;;;;;;5053957;28;20079;-51
2023/08/09 03:48:01;;;;;;;24.60;8.25;;;;;;;;;;5053768;28;20108;-51
2023/08/09 03:50:28;;;;;;;25.13;9.13;;;;;;;;;;5053866;28;20059;-51
2023/08/09 03:52:55;;;;;;;27.52;8.40;;;;;;;;;;5053737;28;20025;-48
2023/08/09 03:55:22;;;;;;;21.77;7.88;;;;;;;;;;5053852;28;20632;-49
2023/08/09 03:57:49;;;;;;;22.58;7.88;;;;;;;;;;5053779;28;20025;-49
2023/08/09 04:00:22;;;;;;;22.67;8.00;;;;;;;;;;5053735;28;20043;-49
2023/08/09 04:02:49;;;;;;;23.70;7.50;;;;;;;;;;5053712;28;20033;-50
2023/08/09 04:05:19;;;;;;;20.42;7.65;;;;;;;;;;5053577;28;20037;-51
2023/08/09 04:07:47;;;;;;;20.35;7.72;;;;;;;;;;5053791;28;20442;-50
2023/08/09 04:10:14;;;;;;;19.65;7.03;;;;;;;;;;5053502;28;20040;-48
2023/08/09 04:12:41;;;;;;;19.60;7.05;;;;;;;;;;5052153;28;20424;-53
2023/08/09 04:15:08;;;;;;;23.88;7.30;;;;;;;;;;5053396;28;20067;-49
2023/08/09 04:17:35;;;;;;;22.25;7.47;;;;;;;;;;5053352;28;20090;-49
2023/08/09 04:20:03;;;;;;;20.10;6.90;;;;;;;;;;5053341;28;20040;-51
2023/08/09 04:22:30;;;;;;;17.95;6.93;;;;;;;;;;5053250;28;20040;-50
2023/08/09 04:24:57;;;;;;;19.08;6.57;;;;;;;;;;5052935;28;20562;-48
2023/08/09 04:27:24;;;;;;;17.17;6.60;;;;;;;;;;5052502;28;20052;-49
2023/08/09 04:29:51;;;;;;;18.88;6.90;;;;;;;;;;5053148;28;20029;-51
2023/08/09 04:32:18;;;;;;;20.17;6.47;;;;;;;;;;5053060;28;20021;-49
2023/08/09 04:34:45;;;;;;;19.67;6.20;;;;;;;;;;5052964;28;20031;-49
2023/08/09 04:37:12;;;;;;;17.95;5.93;;;;;;;;;;5053011;28;20029;-49
2023/08/09 04:39:39;;;;;;;16.95;6.00;;;;;;;;;;5053264;28;20041;-53
2023/08/09 04:42:06;;;;;;;16.83;6.28;;;;;;;;;;5052963;28;20386;-52
2023/08/09 04:44:33;;;;;;;19.73;6.18;;;;;;;;;;5052751;28;20032;-48
2023/08/09 04:47:00;;;;;;;18.95;5.70;;;;;;;;;;5052823;28;20150;-49
2023/08/09 04:49:27;;;;;;;14.82;5.97;;;;;;;;;;5052675;28;20029;-50
2023/08/09 04:51:54;;;;;;;16.75;5.68;;;;;;;;;;5052749;28;20036;-51
2023/08/09 04:54:21;;;;;;;17.98;6.13;;;;;;;;;;5052554;28;20028;-51
2023/08/09 04:56:48;;;;;;;19.40;6.10;;;;;;;;;;5052583;28;20564;-49
2023/08/09 04:59:15;;;;;;;13.63;4.88;;;;;;;;;;5052575;28;20387;-49
2023/08/09 05:01:42;;;;;;;15.20;5.32;;;;;;;;;;5051185;28;20099;-49
2023/08/09 05:04:09;;;;;;;14.18;5.35;;;;;;;;;;5052301;28;20495;-51
2023/08/09 05:06:36;;;;;;;15.40;5.35;;;;;;;;;;5052382;28;20017;-52
2023/08/09 05:09:04;;;;;;;16.42;5.70;;;;;;;;;;5052312;28;20108;-51
2023/08/09 05:11:31;;;;;;;15.45;5.35;;;;;;;;;;5052280;28;20037;-50
2023/08/09 05:13:58;;;;;;;11.02;4.90;;;;;;;;;;5052288;28;20025;-48
2023/08/09 05:16:25;;;;;;;12.48;4.93;;;;;;;;;;5052280;28;20025;-47
2023/08/09 05:18:53;;;;;;;14.50;5.30;;;;;;;;;;5052179;28;20090;-48
2023/08/09 05:21:20;;;;;;;16.65;5.18;;;;;;;;;;5052208;28;20028;-47
2023/08/09 05:23:47;;;;;;;14.40;4.90;;;;;;;;;;5052030;28;20031;-47
2023/08/09 05:26:14;;;;;;;12.88;4.40;;;;;;;;;;5051836;28;20044;-48
2023/08/09 05:28:41;;;;;;;14.45;4.78;;;;;;;;;;5051851;28;20079;-47
2023/08/09 05:31:08;;;;;;;14.23;4.63;;;;;;;;;;5051913;28;20489;-47
2023/08/09 05:33:35;;;;;;;15.63;5.50;;;;;;;;;;5051942;28;20403;-47
2023/08/09 05:36:02;;;;;;;11.35;4.63;;;;;;;;;;5051899;28;20032;-47
2023/08/09 05:38:29;;;;;;;14.15;5.03;;;;;;;;;;5051942;28;20036;-48
2023/08/09 05:40:56;;;;;;;11.85;4.35;;;;;;;;;;5051765;28;20479;-47
2023/08/09 05:43:23;;;;;;;12.52;4.03;;;;;;;;;;5051758;28;20044;-48
2023/08/09 05:45:50;;;;;;;11.45;4.25;;;;;;;;;;5051863;28;20033;-48
2023/08/09 05:48:17;;;;;;;15.18;5.10;;;;;;;;;;5051735;28;20486;-48
2023/08/09 05:50:44;;;;;;;11.75;4.53;;;;;;;;;;5051844;28;20395;-48
2023/08/09 05:53:12;;;;;;;11.93;4.20;;;;;;;;;;5051507;28;20163;-47
2023/08/09 05:55:40;;;;;;;11.32;4.30;;;;;;;;;;5051579;28;20060;-48
2023/08/09 05:58:07;;;;;;;10.70;4.43;;;;;;;;;;5051644;28;20032;-48
2023/08/09 06:00:35;;;;;;;13.27;4.85;;;;;;;;;;5051651;28;20069;-50
2023/08/09 06:03:02;;;;;;;11.85;4.40;;;;;;;;;;5050064;28;20112;-49
2023/08/09 06:05:29;;;;;;;13.10;4.60;;;;;;;;;;5051475;28;20044;-49
2023/08/09 06:07:56;;;;;;;9.85;4.10;;;;;;;;;;5051542;28;20028;-47
2023/08/09 06:10:25;;;;;;;12.80;3.95;;;;;;;;;;5051445;28;20100;-47
2023/08/09 06:12:52;;;;;;;9.20;4.03;;;;;;;;;;5050088;28;20029;-51
2023/08/09 06:15:20;;;;;;;11.25;4.00;;;;;;;;;;5051396;28;20510;-50
2023/08/09 06:17:47;;;;;;;10.85;4.28;;;;;;;;;;5051375;28;20029;-48
2023/08/09 06:20:14;;;;;;;12.85;3.97;;;;;;;;;;5051407;28;20504;-47
2023/08/09 06:22:42;;;;;;;10.30;4.38;;;;;;;;;;5051477;28;20025;-50
2023/08/09 06:25:09;;;;;;;9.88;3.85;;;;;;;;;;5051147;28;20049;-48
2023/08/09 06:27:37;;;;;;;11.43;4.68;;;;;;;;;;5051301;28;20037;-49
2023/08/09 06:30:06;;;;;;;9.80;3.92;;;;;;;;;;5051291;28;20071;-48
2023/08/09 06:32:33;;;;;;;9.85;4.00;;;;;;;;;;5051321;28;20029;-48
2023/08/09 06:35:00;;;;;;;9.95;4.07;;;;;;;;;;5051233;28;20072;-48
2023/08/09 06:37:27;;;;;;;8.40;3.88;;;;;;;;;;5051059;28;20106;-47
2023/08/09 06:39:54;;;;;;;11.68;4.88;;;;;;;;;;5051639;28;20528;-48
2023/08/09 06:42:21;;;;;;;13.90;4.30;;;;;;;;;;5051305;28;20036;-49
2023/08/09 06:44:48;;;;;;;13.02;4.40;;;;;;;;;;5051150;28;20029;-48
2023/08/09 06:47:15;;;;;;;10.90;3.75;;;;;;;;;;5051225;28;20041;-47
2023/08/09 06:49:42;;;;;;;12.13;4.55;;;;;;;;;;5052335;28;20036;-47
2023/08/09 06:52:09;;;;;;;11.27;3.85;;;;;;;;;;5054916;28;20021;-51
2023/08/09 06:54:36;;;;;;;9.20;3.92;;;;;;;;;;5054837;28;20102;-47
2023/08/09 06:57:03;;;;;;;11.40;3.65;;;;;;;;;;5054947;28;20063;-48
2023/08/09 06:59:30;;;;;;;11.80;4.40;;;;;;;;;;5053425;28;20112;-50
2023/08/09 07:01:58;;;;;;;12.40;3.65;;;;;;;;;;5054830;28;20024;-50
2023/08/09 07:04:26;;;;;;;8.93;3.70;;;;;;;;;;5054741;28;20033;-48
2023/08/09 07:06:54;;;;;;;12.40;3.97;;;;;;;;;;5054969;28;20680;-47
2023/08/09 07:09:21;;;;;;;9.32;3.85;;;;;;;;;;5054555;28;20112;-52
2023/08/09 07:11:48;;;;;;;11.40;4.10;;;;;;;;;;5054553;28;20044;-49
2023/08/09 07:14:15;;;;;;;9.75;3.55;;;;;;;;;;5054218;28;20036;-48
2023/08/09 07:16:42;;;;;;;9.60;3.90;;;;;;;;;;5054557;28;20033;-47
2023/08/09 07:19:10;;;;;;;8.88;3.90;;;;;;;;;;5054379;28;20047;-50
2023/08/09 07:21:37;;;;;;;11.45;3.95;;;;;;;;;;5054270;28;20119;-48
2023/08/09 07:24:04;;;;;;;9.10;3.38;;;;;;;;;;5054384;28;20035;-48
2023/08/09 07:26:31;;;;;;;14.13;3.92;;;;;;;;;;5054212;28;20049;-49
2023/08/09 07:28:59;;;;;;;10.50;3.50;;;;;;;;;;5053996;28;20037;-50
2023/08/09 07:31:26;;;;;;;10.55;4.13;;;;;;;;;;5054186;28;20044;-51
2023/08/09 07:33:53;;;;;;;10.20;3.88;;;;;;;;;;5054096;28;20025;-48
2023/08/09 07:36:20;;;;;;;9.82;3.70;;;;;;;;;;5054183;28;20517;-48
2023/08/09 07:38:47;;;;;;;10.82;3.65;;;;;;;;;;5053969;28;20052;-53
2023/08/09 07:41:14;;;;;;;9.63;3.97;;;;;;;;;;5054131;28;20039;-48
2023/08/09 07:43:41;;;;;;;10.40;3.70;;;;;;;;;;5053995;28;20029;-47
2023/08/09 07:46:08;;;;;;;11.05;3.75;;;;;;;;;;5053998;28;20017;-49
2023/08/09 07:48:35;;;;;;;12.13;3.67;;;;;;;;;;5053821;28;20071;-47
2023/08/09 07:51:02;;;;;;;11.20;3.80;;;;;;;;;;5053934;28;20041;-49
2023/08/09 07:53:29;;;;;;;9.43;3.78;;;;;;;;;;5053816;28;20033;-47
2023/08/09 07:55:56;;;;;;;9.05;3.45;;;;;;;;;;5053668;28;20025;-49
2023/08/09 07:58:23;;;;;;;12.75;4.15;;;;;;;;;;5053839;28;20064;-51
2023/08/09 08:00:50;;;;;;;10.00;4.18;;;;;;;;;;5052619;28;20024;-50
2023/08/09 08:03:18;;;;;;;11.25;3.97;;;;;;;;;;5053546;28;20033;-48
2023/08/09 08:05:45;;;;;;;9.48;3.67;;;;;;;;;;5053547;28;20033;-48
2023/08/09 08:08:12;;;;;;;9.05;3.50;;;;;;;;;;5053446;28;20057;-47
2023/08/09 08:10:41;;;;;;;9.32;3.58;;;;;;;;;;5053481;28;20526;-49
2023/08/09 08:13:08;;;;;;;7.95;3.20;;;;;;;;;;5053369;28;20480;-50
2023/08/09 08:15:36;;;;;;;8.95;3.65;;;;;;;;;;5053393;28;20044;-51
2023/08/09 08:18:04;;;;;;;9.55;3.50;;;;;;;;;;5053669;28;20064;-50
2023/08/09 08:20:32;;;;;;;13.63;3.45;;;;;;;;;;5053305;28;20021;-50
2023/08/09 08:22:59;;;;;;;9.20;3.40;;;;;;;;;;5053028;28;20628;-49
2023/08/09 08:25:26;;;;;;;10.80;3.78;;;;;;;;;;5053129;28;20048;-51
2023/08/09 08:27:53;;;;;;;12.07;3.80;;;;;;;;;;5053247;28;20028;-48
2023/08/09 08:30:23;;;;;;;9.88;3.83;;;;;;;;;;5053088;28;20053;-48
2023/08/09 08:32:54;;;;;;;9.35;3.75;;;;;;;;;;5053069;28;20510;-51
2023/08/09 08:35:21;;;;;;;8.98;3.75;;;;;;;;;;5053071;28;20044;-49
2023/08/09 08:37:53;;;;;;;9.93;3.67;;;;;;;;;;5053003;28;20040;-51
2023/08/09 08:40:21;;;;;;;10.27;3.67;;;;;;;;;;5052941;28;20095;-51
2023/08/09 08:42:49;;;;;;;9.35;3.75;;;;;;;;;;5052803;28;20029;-49
2023/08/09 08:45:16;;;;;;;9.90;3.50;;;;;;;;;;5052827;28;20072;-49
2023/08/09 08:47:44;;;;;;;8.18;3.30;;;;;;;;;;5052855;28;20103;-50
2023/08/09 08:50:12;;;;;;;9.07;3.55;;;;;;;;;;5052760;28;20037;-49
2023/08/09 08:52:40;;;;;;;9.18;3.35;;;;;;;;;;5051340;28;20036;-50
2023/08/09 08:55:11;;;;;;;10.73;3.65;;;;;;;;;;5052664;28;20108;-49
2023/08/09 08:57:39;;;;;;;10.63;3.50;;;;;;;;;;5052569;28;20056;-50
2023/08/09 09:00:16;;;;;;;8.93;3.25;;;;;;;;;;5052631;28;20122;-51
2023/08/09 09:02:44;;;;;;;11.10;3.85;;;;;;;;;;5052500;28;20501;-52
2023/08/09 09:05:12;;;;;;;10.63;3.40;;;;;;;;;;5052129;28;20402;-51
2023/08/09 09:07:40;;;;;;;10.52;3.33;;;;;;;;;;5052424;28;20029;-51
2023/08/09 09:10:09;;;;;;;8.57;3.15;;;;;;;;;;5052084;28;20542;-49
2023/08/09 09:12:37;;;;;;;12.27;3.45;;;;;;;;;;5051180;28;20091;-51
2023/08/09 09:15:04;;;;;;;7.65;3.40;;;;;;;;;;5049107;28;20384;-49
2023/08/09 09:17:41;;;;;;;8.30;3.40;;;;;;;;;;5051655;28;20031;-48
2023/08/09 09:20:13;;;;;;;9.18;3.40;;;;;;;;;;5049400;28;20108;-50
2023/08/09 09:22:40;;;;;;;9.60;3.60;;;;;;;;;;5052136;28;20463;-52
2023/08/09 09:25:10;;;;;;;9.38;3.53;;;;;;;;;;5051965;28;20136;-49
2023/08/09 09:27:39;;;;;;;8.75;3.10;;;;;;;;;;5051043;28;20558;-48
2023/08/09 09:30:19;;;;;;;9.05;3.35;;;;;;;;;;5051613;28;20045;-49
2023/08/09 09:32:52;;;;;;;9.98;3.30;;;;;;;;;;5051752;28;20056;-49
2023/08/09 09:35:22;;;;;;;8.75;3.25;;;;;;;;;;5051907;28;20051;-50
2023/08/09 09:37:51;;;;;;;10.68;3.35;;;;;;;;;;5051842;28;20504;-50
2023/08/09 09:40:24;;;;;;;11.50;3.72;;;;;;;;;;5051647;28;20505;-52
2023/08/09 09:42:54;;;;;;;10.30;3.47;;;;;;;;;;5051594;28;20033;-51
2023/08/09 09:45:23;;;;;;;12.70;3.42;;;;;;;;;;5051742;28;20086;-51
2023/08/09 09:47:51;;;;;;;15.02;3.50;;;;;;;;;;5046232;28;20033;-56
2023/08/09 09:50:23;;;;;;;14.70;3.25;;;;;;;;;;5048566;28;20113;-48
2023/08/09 09:52:52;;;;;;;12.95;3.97;;;;;;;;;;5051017;28;20125;-51
2023/08/09 09:55:20;;;;;;;14.48;3.60;;;;;;;;;;5049728;28;20032;-50
2023/08/09 09:57:50;;;;;;;13.20;3.60;;;;;;;;;;5051180;28;20037;-47
2023/08/09 10:00:20;;;;;;;13.45;3.30;;;;;;;;;;5050218;28;20037;-50
2023/08/09 10:02:51;;;;;;;9.63;3.08;;;;;;;;;;5050584;28;20045;-48
2023/08/09 10:05:19;;;;;;;13.88;3.38;;;;;;;;;;5049160;28;20037;-49
2023/08/09 10:07:47;;;;;;;9.45;3.50;;;;;;;;;;5051325;28;20103;-48
2023/08/09 10:10:14;;;;;;;13.32;3.50;;;;;;;;;;5049696;28;20044;-53
2023/08/09 10:12:47;;;;;;;9.95;3.25;;;;;;;;;;5050861;28;20040;-48
2023/08/09 10:15:16;;;;;;;10.60;3.83;;;;;;;;;;5045413;28;20049;-46
2023/08/09 10:17:44;;;;;;;9.35;3.28;;;;;;;;;;5049802;28;20107;-47
2023/08/09 10:20:13;;;;;;;12.40;3.53;;;;;;;;;;5049553;28;20037;-49
2023/08/09 10:22:40;;;;;;;10.57;3.35;;;;;;;;;;5048120;28;20497;-52
2023/08/09 10:25:07;;;;;;;9.77;3.38;;;;;;;;;;5050704;28;20041;-53
2023/08/09 10:27:49;;;;;;;9.65;3.10;;;;;;;;;;5055310;28;20037;-52
2023/08/09 10:30:19;;;;;;;7.70;3.20;;;;;;;;;;5054728;28;20060;-51
2023/08/09 10:32:52;;;;;;;11.15;3.75;;;;;;;;;;5053502;28;20033;-51
2023/08/09 10:35:39;;;;;;;7.45;3.10;;;;;;;;;;5053511;28;20033;-48
2023/08/09 10:38:07;;;;;;;9.68;3.40;;;;;;;;;;5050878;28;20044;-50
2023/08/09 10:40:36;;;;;;;8.75;3.00;;;;;;;;;;5054846;28;20120;-51
2023/08/09 10:43:04;;;;;;;11.48;3.38;;;;;;;;;;5052772;28;20492;-52
2023/08/09 10:45:34;;;;;;;9.35;3.40;;;;;;;;;;5053337;28;20025;-49
2023/08/09 10:48:17;;;;;;;12.77;3.35;;;;;;;;;;5054670;28;20063;-50
2023/08/09 10:50:44;;;;;;;8.27;3.03;;;;;;;;;;5055013;28;20083;-51
2023/08/09 10:53:11;;;;;;;10.35;3.42;;;;;;;;;;5053471;28;20021;-51
2023/08/09 10:55:38;;;;;;;9.32;3.45;;;;;;;;;;5052726;28;20024;-53
2023/08/09 10:58:06;;;;;;;7.38;3.03;;;;;;;;;;5054581;28;20040;-48
2023/08/09 11:00:41;;;;;;;8.48;2.90;;;;;;;;;;5052823;28;20120;-53
2023/08/09 11:03:08;;;;;;;12.40;3.20;;;;;;;;;;5034376;28;20099;-52
2023/08/09 11:05:35;;;;;;;14.88;3.60;;;;;;;;;;5062663;28;20060;-48
2023/08/09 11:08:10;;;;;;;11.77;3.33;;;;;;;;;;5056705;28;20025;-50
2023/08/09 11:10:38;;;;;;;11.27;3.00;;;;;;;;;;5062205;28;20037;-51
2023/08/09 11:13:13;;;;;;;11.65;3.08;;;;;;;;;;5067057;28;20024;-52
2023/08/09 11:15:44;;;;;;;15.13;3.55;;;;;;;;;;5057149;28;20029;-50
2023/08/09 11:18:12;;;;;;;15.68;3.92;;;;;;;;;;5056908;28;20056;-48
2023/08/09 11:20:39;;;;;;;13.75;3.80;;;;;;;;;;5056810;28;20032;-49
2023/08/09 11:23:06;;;;;;;12.00;3.50;;;;;;;;;;5065143;28;20086;-48
2023/08/09 11:25:34;;;;;;;9.95;2.90;;;;;;;;;;5049968;28;20057;-46
2023/08/09 11:28:02;;;;;;;17.90;3.80;;;;;;;;;;5053422;28;20040;-47
2023/08/09 11:30:33;;;;;;;17.35;4.13;;;;;;;;;;5060733;28;20044;-47
2023/08/09 11:33:01;;;;;;;16.33;3.45;;;;;;;;;;5067650;28;20025;-47
2023/08/09 11:35:32;;;;;;;61.95;5.50;;;;;;;;;;5061118;28;20024;-48
2023/08/09 11:37:59;;;;;;;574.85;34.35;;;;;;;;;;5073907;28;20032;-43
2023/08/09 11:40:26;;;;;;;232.93;14.65;;;;;;;;;;5073701;28;20036;-41
2023/08/09 11:42:57;;;;;;;249.20;14.73;;;;;;;;;;5070713;28;20040;-41
2023/08/09 11:45:24;;;;;;;140.80;9.32;;;;;;;;;;5073845;28;20115;-41
2023/08/09 11:47:53;;;;;;;53.67;7.38;;;;;;;;;;5073767;28;20108;-40
2023/08/09 11:50:21;;;;;;;51.85;6.63;;;;;;;;;;5073305;28;20186;-40
2023/08/09 11:52:52;;;;;;;49.13;6.88;;;;;;;;;;5070228;28;20032;-41
2023/08/09 11:55:19;;;;;;;54.70;6.38;;;;;;;;;;5073270;28;20032;-40
2023/08/09 11:57:46;;;;;;;43.78;5.70;;;;;;;;;;5073517;28;20427;-39
2023/08/09 12:00:15;;;;;;;110.05;9.85;;;;;;;;;;5073214;28;20043;-39
2023/08/09 12:02:42;;;;;;;99.22;8.70;;;;;;;;;;5071460;28;20029;-40
2023/08/09 12:05:10;;;;;;;65.90;7.20;;;;;;;;;;5071613;28;20070;-39
2023/08/09 12:07:37;;;;;;;50.72;5.95;;;;;;;;;;5073328;28;20082;-40
2023/08/09 12:10:04;;;;;;;40.38;5.53;;;;;;;;;;5073217;28;20039;-40
2023/08/09 12:12:42;;;;;;;33.20;5.28;;;;;;;;;;5073194;28;20031;-40
2023/08/09 12:15:10;;;;;;;38.72;5.75;;;;;;;;;;5073329;28;20029;-41
2023/08/09 12:17:37;;;;;;;43.67;6.10;;;;;;;;;;5073203;28;20017;-42
2023/08/09 12:20:10;;;;;;;64.30;8.45;;;;;;;;;;5073138;28;20398;-39
2023/08/09 12:22:36;;;;;;;;;;;;;;;;;;5073428;28;20115;-41
2023/08/09 12:25:04;;;;;;;206.68;24.50;;;;;;;;;;5072934;28;19920;-39
2023/08/09 12:27:31;;;;;;;215.15;27.40;;;;;;;;;;5073189;28;20596;-39
2023/08/09 12:29:58;;;;;;;231.15;27.70;;;;;;;;;;5072926;28;20090;-39
2023/08/09 12:32:25;;;;;;;210.50;28.52;;;;;;;;;;5072917;28;20064;-40
2023/08/09 12:34:52;;;;;;;214.07;26.27;;;;;;;;;;5072889;28;20111;-40
2023/08/09 12:37:20;;;;;;;203.13;27.65;;;;;;;;;;5072938;28;20048;-39
2023/08/09 12:39:48;;;;;;;207.35;26.02;;;;;;;;;;5072870;28;20032;-39
2023/08/09 12:42:15;;;;;;;191.18;26.45;;;;;;;;;;5071345;28;20032;-39
2023/08/09 12:44:43;;;;;;;200.77;26.30;;;;;;;;;;5072761;28;20483;-39
2023/08/09 12:47:10;;;;;;;203.30;28.33;;;;;;;;;;5071825;28;20044;-39
2023/08/09 12:49:37;;;;;;;202.57;28.70;;;;;;;;;;5072475;28;20029;-40
2023/08/09 12:52:04;;;;;;;198.43;27.98;;;;;;;;;;5072542;28;20116;-39
2023/08/09 12:54:31;;;;;;;177.07;26.90;;;;;;;;;;5072598;28;20493;-39
2023/08/09 12:56:57;;;;;;;187.85;27.55;;;;;;;;;;5072564;28;20024;-39
2023/08/09 12:59:24;;;;;;;177.95;27.70;;;;;;;;;;5072415;28;20256;-39
2023/08/09 13:01:51;;;;;;;182.05;27.42;;;;;;;;;;5072479;28;20390;-41
2023/08/09 13:04:23;;;;;;;181.00;25.75;;;;;;;;;;5072252;28;20025;-39
2023/08/09 13:06:51;;;;;;;150.18;24.23;;;;;;;;;;5072305;28;20544;-39
2023/08/09 13:09:18;;;;;;;145.35;23.30;;;;;;;;;;5072091;28;20044;-40
2023/08/09 13:11:48;;;;;;;136.73;22.50;;;;;;;;;;5072151;28;20021;-41
2023/08/09 13:14:15;;;;;;;147.10;22.95;;;;;;;;;;5072118;28;20494;-39
2023/08/09 13:16:42;;;;;;;152.98;23.05;;;;;;;;;;5069602;28;20082;-40
2023/08/09 13:19:09;;;;;;;115.43;21.30;;;;;;;;;;5047002;28;20481;-46
2023/08/09 13:21:36;;;;;;;129.90;19.27;;;;;;;;;;5050833;28;20497;-44
2023/08/09 13:24:05;;;;;;;125.97;21.00;;;;;;;;;;5051353;28;20107;-44
2023/08/09 13:26:32;;;;;;;91.03;16.92;;;;;;;;;;5049869;28;20060;-43
2023/08/09 13:28:59;;;;;;;96.78;17.27;;;;;;;;;;5051086;28;20045;-42
2023/08/09 13:31:27;;;;;;;92.25;17.20;;;;;;;;;;5051666;28;20032;-41
2023/08/09 13:33:54;;;;;;;86.70;15.27;;;;;;;;;;5049699;28;20086;-42
2023/08/09 13:36:21;;;;;;;88.47;16.25;;;;;;;;;;5049034;28;20483;-40
2023/08/09 13:38:48;;;;;;;69.80;14.18;;;;;;;;;;5051711;28;20036;-40
2023/08/09 13:41:15;;;;;;;73.28;13.13;;;;;;;;;;5047069;28;20033;-46
2023/08/09 13:43:42;;;;;;;75.22;12.35;;;;;;;;;;5050834;28;20108;-41
2023/08/09 13:46:09;;;;;;;65.57;11.60;;;;;;;;;;5051740;28;20021;-40
2023/08/09 13:48:37;;;;;;;69.60;12.02;;;;;;;;;;5051722;28;20029;-39
2023/08/09 13:51:05;;;;;;;64.55;12.13;;;;;;;;;;5051247;28;20044;-40
2023/08/09 13:53:32;;;;;;;68.57;11.77;;;;;;;;;;5051401;28;20035;-40
2023/08/09 13:55:59;;;;;;;67.60;12.63;;;;;;;;;;5051224;28;20033;-40
2023/08/09 13:58:26;;;;;;;56.67;11.70;;;;;;;;;;5050931;28;20029;-40
2023/08/09 14:00:54;;;;;;;53.13;11.70;;;;;;;;;;5050681;28;20021;-42
2023/08/09 14:03:21;;;;;;;57.17;11.55;;;;;;;;;;5051077;28;20033;-40
2023/08/09 14:05:48;;;;;;;52.42;11.18;;;;;;;;;;5051051;28;20048;-40
2023/08/09 14:08:15;;;;;;;56.63;11.13;;;;;;;;;;5051140;28;20515;-40
2023/08/09 14:10:42;;;;;;;48.20;9.77;;;;;;;;;;5051056;28;20124;-40
2023/08/09 14:13:09;;;;;;;51.42;12.23;;;;;;;;;;5050971;28;20048;-41
2023/08/09 14:15:37;;;;;;;43.00;9.95;;;;;;;;;;5050796;28;20158;-40
2023/08/09 14:18:04;;;;;;;53.03;10.38;;;;;;;;;;5050033;28;20444;-40
2023/08/09 14:20:32;;;;;;;45.65;9.38;;;;;;;;;;5051286;28;20498;-40
2023/08/09 14:22:59;;;;;;;46.70;9.10;;;;;;;;;;5051491;28;20489;-40
2023/08/09 14:25:26;;;;;;;36.22;8.80;;;;;;;;;;5051159;28;20053;-41
2023/08/09 14:27:53;;;;;;;41.10;8.55;;;;;;;;;;5051283;28;20096;-40
2023/08/09 14:30:20;;;;;;;59.80;9.80;;;;;;;;;;5051197;28;20076;-40
2023/08/09 14:32:47;;;;;;;60.10;10.57;;;;;;;;;;5051109;28;20025;-40